createdAt,value
2023-01-18T00:00:28.437Z,-2.03
2023-01-18T00:04:29.981Z,-2.02
2023-01-18T00:08:33.505Z,-2.19
2023-01-18T00:12:35.010Z,-1.80
2023-01-18T00:16:36.569Z,-1.73
2023-01-18T00:20:38.148Z,-1.67
2023-01-18T00:24:39.552Z,-1.66
2023-01-18T00:28:41.493Z,-1.57
2023-01-18T00:32:46.052Z,-1.59
2023-01-18T00:36:48.925Z,-1.52
2023-01-18T00:40:50.630Z,-1.51
2023-01-18T00:44:52.092Z,-1.75
2023-01-18T00:48:54.729Z,-1.44
2023-01-18T00:52:58.577Z,-1.48
2023-01-18T00:57:00.393Z,-1.50
2023-01-18T01:01:01.884Z,-1.69
2023-01-18T01:05:22.442Z,-1.58
2023-01-18T01:09:26.816Z,-2.05
2023-01-18T01:13:46.716Z,-1.94
2023-01-18T01:18:06.536Z,-1.92
2023-01-18T01:22:26.795Z,-2.24
2023-01-18T01:26:28.178Z,-1.85
2023-01-18T01:30:29.679Z,-1.74
2023-01-18T01:34:31.830Z,-1.67
2023-01-18T01:38:33.791Z,-1.98
2023-01-18T01:42:35.262Z,-1.85
2023-01-18T01:46:39.595Z,-2.19
2023-01-18T01:50:41.778Z,-2.02
2023-01-18T01:55:11.873Z,-1.80
2023-01-18T01:59:15.613Z,-1.81
2023-01-18T02:03:20.836Z,-1.72
2023-01-18T02:07:23.654Z,-1.73
2023-01-18T02:11:25.150Z,-1.61
2023-01-18T02:15:43.232Z,-1.48
2023-01-18T02:19:56.819Z,-1.29
2023-01-18T02:24:31.806Z,-1.30
2023-01-18T02:28:36.516Z,-1.52
2023-01-18T02:32:53.562Z,-1.31
2023-01-18T02:37:02.000Z,-1.56
2023-01-18T02:41:49.087Z,-1.63
2023-01-18T02:46:08.985Z,-1.54
2023-01-18T02:50:10.957Z,-1.50
2023-01-18T02:54:13.235Z,-1.59
2023-01-18T02:58:26.167Z,-1.37
2023-01-18T03:02:28.398Z,-1.53
2023-01-18T03:06:30.494Z,-1.34
2023-01-18T03:10:38.090Z,-1.63
2023-01-18T03:15:05.314Z,-1.49
2023-01-18T03:19:35.937Z,-1.49
2023-01-18T03:23:42.462Z,-1.33
2023-01-18T03:28:06.623Z,-1.26
2023-01-18T03:32:31.109Z,-1.17
2023-01-18T03:36:38.999Z,-1.07
2023-01-18T03:40:40.741Z,-1.07
2023-01-18T03:44:55.090Z,-1.12
2023-01-18T03:48:57.101Z,-1.06
2023-01-18T03:53:03.428Z,-1.03
2023-01-18T03:57:15.147Z,-1.04
2023-01-18T04:01:17.021Z,-0.99
2023-01-18T04:05:18.573Z,-1.00
2023-01-18T04:09:20.013Z,-0.95
2023-01-18T04:13:21.509Z,-1.20
2023-01-18T04:17:23.009Z,-1.04
2023-01-18T04:21:24.433Z,-1.03
2023-01-18T04:25:26.839Z,-0.99
2023-01-18T04:29:28.773Z,-1.10
2023-01-18T04:33:30.242Z,-1.03
2023-01-18T04:37:34.570Z,-1.35
2023-01-18T04:41:36.022Z,-1.18
2023-01-18T04:45:37.731Z,-0.91
2023-01-18T04:49:39.181Z,-1.04
2023-01-18T04:53:42.425Z,-1.29
2023-01-18T04:57:44.938Z,-1.13
2023-01-18T05:01:46.469Z,-0.86
2023-01-18T05:05:48.029Z,-0.97
2023-01-18T05:09:49.543Z,-0.85
2023-01-18T05:13:51.049Z,-0.93
2023-01-18T05:17:52.558Z,-1.09
2023-01-18T05:21:54.011Z,-0.95
2023-01-18T05:25:57.424Z,-0.99
2023-01-18T05:29:59.506Z,-0.78
2023-01-18T05:34:01.089Z,-0.68
2023-01-18T05:38:02.659Z,-0.51
2023-01-18T05:42:05.526Z,-0.42
2023-01-18T05:46:07.194Z,-0.37
2023-01-18T05:50:10.025Z,-0.13
2023-01-18T05:54:11.970Z,-0.02
2023-01-18T05:58:13.430Z,-0.10
2023-01-18T06:02:14.933Z,-0.11
2023-01-18T06:06:16.537Z,0.01
2023-01-18T06:10:18.225Z,0.07
2023-01-18T06:14:19.686Z,-0.12
2023-01-18T06:18:21.862Z,0.02
2023-01-18T06:22:23.912Z,0.10
2023-01-18T06:26:25.456Z,0.11
2023-01-18T06:30:26.907Z,0.23
2023-01-18T06:34:30.269Z,0.21
2023-01-18T06:38:32.009Z,0.20
2023-01-18T06:42:33.448Z,0.20
2023-01-18T06:46:34.961Z,0.27
2023-01-18T06:50:36.524Z,0.26
2023-01-18T06:54:38.540Z,0.20
2023-01-18T06:58:40.566Z,0.23
2023-01-18T07:02:42.077Z,0.34
2023-01-18T07:06:43.578Z,0.94
2023-01-18T07:10:45.039Z,0.59
2023-01-18T07:14:46.978Z,0.60
2023-01-18T07:18:49.430Z,0.58
2023-01-18T07:22:52.599Z,0.49
2023-01-18T07:26:54.903Z,0.46
2023-01-18T07:30:56.442Z,0.52
2023-01-18T07:34:59.489Z,0.43
2023-01-18T07:39:05.075Z,0.49
2023-01-18T07:43:06.601Z,0.51
2023-01-18T07:47:08.070Z,0.61
2023-01-18T07:51:10.369Z,0.55
2023-01-18T07:55:11.828Z,0.62
2023-01-18T07:59:13.291Z,0.61
2023-01-18T08:03:18.107Z,0.60
2023-01-18T08:07:19.917Z,0.67
2023-01-18T08:11:21.387Z,0.77
2023-01-18T08:15:22.938Z,0.77
2023-01-18T08:19:25.096Z,0.77
2023-01-18T08:23:26.615Z,1.01
2023-01-18T08:27:28.160Z,0.96
2023-01-18T08:31:29.796Z,0.86
2023-01-18T08:35:34.771Z,1.00
2023-01-18T08:39:36.224Z,1.09
2023-01-18T08:43:37.754Z,1.14
2023-01-18T08:47:40.554Z,1.35
2023-01-18T08:51:42.565Z,1.54
2023-01-18T08:55:43.992Z,1.64
2023-01-18T08:59:45.440Z,1.79
2023-01-18T09:03:48.725Z,1.96
2023-01-18T09:07:52.013Z,1.79
2023-01-18T09:11:53.622Z,1.65
2023-01-18T09:16:00.368Z,1.61
2023-01-18T09:20:01.888Z,1.63
2023-01-18T09:24:03.464Z,1.72
2023-01-18T09:28:05.322Z,1.39
2023-01-18T09:32:08.269Z,1.81
2023-01-18T09:36:12.515Z,1.83
2023-01-18T09:40:23.216Z,2.08
2023-01-18T09:44:24.653Z,1.97
2023-01-18T09:48:32.482Z,1.95
2023-01-18T09:53:06.493Z,2.14
2023-01-18T09:57:14.060Z,2.30
2023-01-18T10:01:22.297Z,2.39
2023-01-18T10:05:29.428Z,2.55
2023-01-18T10:09:42.352Z,2.68
2023-01-18T10:13:57.641Z,2.80
2023-01-18T10:18:00.917Z,2.75
2023-01-18T10:22:50.877Z,2.88
2023-01-18T10:26:58.491Z,2.85
2023-01-18T10:31:36.949Z,2.67
2023-01-18T10:35:43.255Z,2.81
2023-01-18T10:39:52.752Z,2.63
2023-01-18T10:43:55.031Z,2.55
2023-01-18T10:47:59.440Z,2.63
2023-01-18T10:52:31.399Z,2.64
2023-01-18T10:56:33.467Z,2.65
2023-01-18T11:00:35.800Z,2.67
2023-01-18T11:04:37.748Z,2.82
2023-01-18T11:08:39.212Z,2.65
2023-01-18T11:12:43.473Z,2.89
2023-01-18T11:17:02.436Z,3.03
2023-01-18T11:21:10.779Z,3.05
2023-01-18T11:25:17.267Z,3.01
2023-01-18T11:29:21.997Z,3.04
2023-01-18T11:33:25.952Z,2.72
2023-01-18T11:37:38.106Z,3.01
2023-01-18T11:41:39.532Z,2.90
2023-01-18T11:45:49.312Z,3.02
2023-01-18T11:49:53.818Z,2.92
2023-01-18T11:54:14.065Z,2.90
2023-01-18T11:58:28.326Z,2.93
2023-01-18T12:03:04.835Z,2.83
2023-01-18T12:07:08.943Z,2.73
2023-01-18T12:12:06.486Z,2.72
2023-01-18T12:16:26.484Z,2.65
2023-01-18T12:20:49.599Z,2.69
2023-01-18T12:25:28.322Z,2.68
2023-01-18T12:29:42.424Z,2.62
2023-01-18T12:34:07.043Z,2.72
2023-01-18T12:38:22.992Z,2.60
2023-01-18T12:42:56.007Z,2.71
2023-01-18T12:47:15.867Z,2.66
2023-01-18T12:51:24.611Z,2.71
2023-01-18T12:55:29.441Z,2.71
2023-01-18T12:59:46.899Z,2.65
2023-01-18T13:03:51.570Z,2.63
2023-01-18T13:08:06.482Z,2.43
2023-01-18T13:12:08.262Z,2.29
2023-01-18T13:16:31.743Z,2.41
2023-01-18T13:21:16.733Z,2.19
2023-01-18T13:25:40.360Z,2.13
2023-01-18T13:29:43.754Z,2.06
2023-01-18T13:33:45.933Z,2.32
2023-01-18T13:37:49.802Z,2.15
2023-01-18T13:42:08.029Z,2.17
2023-01-18T13:46:09.879Z,2.14
2023-01-18T13:50:34.452Z,2.20
2023-01-18T13:54:57.795Z,1.86
2023-01-18T13:59:16.226Z,1.72
2023-01-18T14:03:43.566Z,1.86
2023-01-18T14:07:48.655Z,1.67
2023-01-18T14:11:53.921Z,1.73
2023-01-18T14:15:56.030Z,1.92
2023-01-18T14:20:02.625Z,1.79
2023-01-18T14:24:14.462Z,1.87
2023-01-18T14:28:34.256Z,1.82
2023-01-18T14:32:56.379Z,1.83
2023-01-18T14:36:57.933Z,1.93
2023-01-18T14:41:05.070Z,1.86
2023-01-18T14:45:07.381Z,1.97
2023-01-18T14:49:15.552Z,1.92
2023-01-18T14:53:22.597Z,2.09
2023-01-18T14:57:24.561Z,1.90
2023-01-18T15:01:33.344Z,1.85
2023-01-18T15:05:35.634Z,1.86
2023-01-18T15:09:39.489Z,1.98
2023-01-18T15:13:55.614Z,2.15
2023-01-18T15:18:10.367Z,1.51
2023-01-18T15:22:15.279Z,1.85
2023-01-18T15:26:16.853Z,1.85
2023-01-18T15:30:23.648Z,1.74
2023-01-18T15:34:29.833Z,1.78
2023-01-18T15:38:32.213Z,1.77
2023-01-18T15:42:43.960Z,1.72
2023-01-18T15:46:45.480Z,1.22
2023-01-18T15:50:50.067Z,1.43
2023-01-18T15:54:51.706Z,1.20
2023-01-18T15:58:55.945Z,1.30
2023-01-18T16:02:58.166Z,1.24
2023-01-18T16:07:25.744Z,1.46
2023-01-18T16:11:32.573Z,1.33
2023-01-18T16:15:34.167Z,1.26
2023-01-18T16:19:48.920Z,1.20
2023-01-18T16:23:52.451Z,1.30
2023-01-18T16:27:57.124Z,1.38
2023-01-18T16:32:16.607Z,1.38
2023-01-18T16:36:19.266Z,0.94
2023-01-18T16:40:22.511Z,1.20
2023-01-18T16:44:26.050Z,1.16
2023-01-18T16:48:29.418Z,1.09
2023-01-18T16:52:30.928Z,1.26
2023-01-18T16:56:32.742Z,1.24
2023-01-18T17:00:46.047Z,1.24
2023-01-18T17:04:47.860Z,1.19
2023-01-18T17:08:49.603Z,1.15
2023-01-18T17:12:51.144Z,1.26
2023-01-18T17:16:52.720Z,0.89
2023-01-18T17:20:55.348Z,1.11
2023-01-18T17:24:56.836Z,1.18
2023-01-18T17:28:58.510Z,1.33
2023-01-18T17:33:01.020Z,1.23
2023-01-18T17:37:03.558Z,1.08
2023-01-18T17:41:05.416Z,0.74
2023-01-18T17:45:09.951Z,0.76
2023-01-18T17:49:11.486Z,0.65
2023-01-18T17:53:12.986Z,0.87
2023-01-18T17:57:14.635Z,0.65
2023-01-18T18:01:17.209Z,0.49
2023-01-18T18:05:19.351Z,0.49
2023-01-18T18:09:21.127Z,0.60
2023-01-18T18:13:22.989Z,0.62
2023-01-18T18:17:26.167Z,0.52
2023-01-18T18:21:27.765Z,0.12
2023-01-18T18:25:29.496Z,0.16
2023-01-18T18:29:30.987Z,0.08
2023-01-18T18:33:33.895Z,-0.03
2023-01-18T18:37:36.101Z,0.07
2023-01-18T18:41:37.552Z,-0.15
2023-01-18T18:45:39.323Z,0.13
2023-01-18T18:49:41.271Z,0.15
2023-01-18T18:53:43.137Z,0.10
2023-01-18T18:57:44.906Z,0.03
2023-01-18T19:01:46.581Z,0.02
2023-01-18T19:05:48.112Z,-0.08
2023-01-18T19:09:49.628Z,0.13
2023-01-18T19:13:51.125Z,0.11
2023-01-18T19:17:53.427Z,0.14
2023-01-18T19:21:54.924Z,-0.13
2023-01-18T19:25:59.279Z,-0.21
2023-01-18T19:30:01.113Z,-0.48
2023-01-18T19:34:02.698Z,-0.48
2023-01-18T19:38:04.403Z,-0.49
2023-01-18T19:42:06.794Z,-0.42
2023-01-18T19:46:15.427Z,-0.59
2023-01-18T19:50:17.741Z,-0.52
2023-01-18T19:54:19.271Z,-0.46
2023-01-18T19:58:20.725Z,-0.72
2023-01-18T20:02:22.479Z,-0.67
2023-01-18T20:06:24.160Z,-0.70
2023-01-18T20:10:26.095Z,-0.86
2023-01-18T20:14:40.301Z,-0.95
2023-01-18T20:18:42.567Z,-0.87
2023-01-18T20:22:45.529Z,-0.92
2023-01-18T20:26:47.004Z,-1.19
2023-01-18T20:30:49.894Z,-1.22
2023-01-18T20:34:51.400Z,-1.19
2023-01-18T20:38:52.812Z,-1.25
2023-01-18T20:42:54.271Z,-1.38
2023-01-18T20:46:57.305Z,-1.17
2023-01-18T20:51:00.013Z,-1.67
2023-01-18T20:55:01.622Z,-1.45
2023-01-18T20:59:03.134Z,-1.42
2023-01-18T21:03:05.162Z,-1.45
2023-01-18T21:07:06.825Z,-1.45
2023-01-18T21:11:12.897Z,-1.49
2023-01-18T21:15:14.494Z,-1.48
2023-01-18T21:19:15.996Z,-1.54
2023-01-18T21:23:17.701Z,-1.74
2023-01-18T21:27:19.258Z,-1.82
2023-01-18T21:31:21.452Z,-1.95
2023-01-18T21:35:22.927Z,-1.90
2023-01-18T21:39:28.400Z,-2.08
2023-01-18T21:43:48.656Z,-1.91
2023-01-18T21:47:50.127Z,-1.91
2023-01-18T21:52:10.166Z,-2.07
2023-01-18T21:56:11.685Z,-2.18
2023-01-18T22:00:13.576Z,-2.27
2023-01-18T22:04:34.319Z,-2.41
2023-01-18T22:08:36.063Z,-2.36
2023-01-18T22:12:39.014Z,-2.39
2023-01-18T22:16:41.260Z,-2.60
2023-01-18T22:20:42.685Z,-2.42
2023-01-18T22:24:44.089Z,-2.29
2023-01-18T22:28:45.757Z,-2.53
2023-01-18T22:32:47.261Z,-2.59
2023-01-18T22:36:49.786Z,-2.46
2023-01-18T22:41:01.170Z,-2.37
2023-01-18T22:45:02.649Z,-2.57
2023-01-18T22:49:04.094Z,-2.65
2023-01-18T22:53:05.744Z,-2.76
2023-01-18T22:57:07.202Z,-2.65
2023-01-18T23:01:26.532Z,-2.66
2023-01-18T23:05:28.079Z,-2.81
2023-01-18T23:09:29.604Z,-2.72
2023-01-18T23:13:31.627Z,-2.65
2023-01-18T23:17:38.812Z,-3.05
2023-01-18T23:21:40.296Z,-2.83
2023-01-18T23:25:41.788Z,-2.84
2023-01-18T23:29:43.342Z,-2.91
2023-01-18T23:33:44.875Z,-3.06
2023-01-18T23:37:46.309Z,-3.16
2023-01-18T23:42:06.460Z,-3.29
2023-01-18T23:46:26.296Z,-3.22
2023-01-18T23:50:45.956Z,-3.30
2023-01-18T23:54:47.443Z,-3.16
2023-01-18T23:58:48.961Z,-3.07
